Time;durP1;ratioP1;P1;durP2;ratioP2;P2;SDS_P1;SDS_P2;PMS_P1;PMS_P2;Temp;Humidity;BMP_temperature;BMP_pressure;BME280_temperature;BME280_humidity;BME280_pressure;Samples;Min_cycle;Max_cycle;Signal;HPM_P1;HPM_P2
2023/04/05 00:01:50;;;;;;;5.60;1.98;;;;;;;25.69;29.82;100411.66;7393845;19;20046;-82
2023/04/05 00:04:19;;;;;;;2.70;1.98;;;;;;;25.56;29.68;100399.09;7397652;19;20084;-82
2023/04/05 00:06:49;;;;;;;1.58;1.05;;;;;;;25.50;29.70;100412.78;7394756;19;20029;-82
2023/04/05 00:09:18;;;;;;;3.28;2.22;;;;;;;25.32;29.70;100413.81;7394703;19;20035;-82
2023/04/05 00:11:44;;;;;;;5.47;1.70;;;;;;;25.43;29.95;100407.81;7393466;19;20014;-82
2023/04/05 00:14:10;;;;;;;2.88;1.73;;;;;;;25.27;30.14;100400.53;7396696;19;20022;-82
2023/04/05 00:16:37;;;;;;;5.50;1.40;;;;;;;25.28;29.87;100401.25;7393056;19;20019;-82
2023/04/05 00:19:03;;;;;;;3.30;3.03;;;;;;;25.28;30.01;100398.41;7393501;19;20066;-82
2023/04/05 00:21:29;;;;;;;9.55;2.10;;;;;;;25.22;29.54;100392.88;7392373;19;20365;-82
2023/04/05 00:23:57;;;;;;;4.47;1.35;;;;;;;24.92;29.94;100392.75;7393838;19;20014;-82
2023/04/05 00:26:24;;;;;;;3.28;1.52;;;;;;;24.75;30.46;100401.03;7393815;19;20551;-82
2023/04/05 00:28:54;;;;;;;2.65;1.70;;;;;;;24.62;30.17;100386.88;7392537;19;20018;-82
2023/04/05 00:31:20;;;;;;;11.23;2.03;;;;;;;24.58;30.58;100392.19;7391934;19;20461;-82
2023/04/05 00:33:47;;;;;;;4.57;2.13;;;;;;;24.50;30.36;100391.34;7392729;19;20007;-82
2023/04/05 00:36:15;;;;;;;2.75;1.83;;;;;;;24.41;30.76;100391.84;7389810;19;20018;-82
2023/04/05 00:38:43;;;;;;;7.47;2.50;;;;;;;24.38;30.43;100393.75;7391135;19;20044;-82
2023/04/05 00:41:10;;;;;;;1.95;1.63;;;;;;;24.33;30.84;100391.81;7390889;19;20026;-82
2023/04/05 00:43:37;;;;;;;5.38;1.67;;;;;;;24.20;30.66;100382.59;7394306;19;20014;-82
2023/04/05 00:46:06;;;;;;;7.22;2.33;;;;;;;24.15;30.81;100389.22;7390855;19;20039;-82
2023/04/05 00:48:34;;;;;;;1.50;1.40;;;;;;;24.15;30.78;100384.25;7390887;19;20022;-82
2023/04/05 00:51:01;;;;;;;3.78;1.70;;;;;;;24.14;30.52;100388.44;7390836;19;20070;-82
2023/04/05 00:53:27;;;;;;;4.95;1.88;;;;;;;24.08;30.87;100380.03;7391138;19;20039;-82
2023/04/05 00:55:54;;;;;;;1.95;1.38;;;;;;;24.04;30.98;100385.31;7389689;19;20022;-82
2023/04/05 00:58:22;;;;;;;2.45;2.03;;;;;;;23.97;31.05;100377.44;7391034;19;20473;-83
2023/04/05 01:01:01;;;;;;;1.40;1.35;;;;;;;23.90;31.18;100377.41;7390743;19;20074;-82
2023/04/05 01:03:30;;;;;;;1.40;1.08;;;;;;;23.87;30.79;100376.41;7391340;19;20029;-82
2023/04/05 01:06:15;;;;;;;3.67;1.25;;;;;;;23.77;31.32;100361.16;7390847;19;20014;-82
2023/04/05 01:09:03;;;;;;;2.17;1.27;;;;;;;23.82;31.13;100365.19;7393133;19;20481;-82
2023/04/05 01:11:32;;;;;;;1.35;1.33;;;;;;;23.80;30.94;100357.19;7391903;19;20022;-82
2023/04/05 01:13:59;;;;;;;8.80;3.13;;;;;;;23.86;31.45;100357.84;7392382;19;20087;-82
2023/04/05 01:16:26;;;;;;;1.88;1.10;;;;;;;23.84;31.24;100349.09;7389561;19;20021;-82
2023/04/05 01:18:55;;;;;;;7.65;2.38;;;;;;;23.80;31.13;100348.66;7388519;19;20017;-82
2023/04/05 01:21:24;;;;;;;1.90;1.80;;;;;;;23.76;31.70;100351.09;7388899;19;20015;-82
2023/04/05 01:24:11;;;;;;;22.30;2.80;;;;;;;23.75;31.82;100346.75;7394293;19;20026;-82
2023/04/05 01:26:44;;;;;;;2.25;2.00;;;;;;;23.78;31.81;100350.56;7391610;19;20115;-83
2023/04/05 01:29:32;;;;;;;5.63;1.90;;;;;;;23.75;31.92;100345.97;7392169;19;20022;-82
2023/04/05 01:32:09;;;;;;;1.50;1.27;;;;;;;23.82;31.69;100346.03;7389646;19;20021;-83
2023/04/05 01:34:59;;;;;;;1.08;1.05;;;;;;;23.82;31.95;100340.34;7393935;19;20019;-83
2023/04/05 01:37:31;;;;;;;11.02;2.05;;;;;;;23.91;31.88;100331.31;7391034;19;20346;-82
2023/04/05 01:39:59;;;;;;;5.13;1.17;;;;;;;23.84;31.64;100334.88;7389130;19;20018;-83
2023/04/05 01:42:25;;;;;;;1.00;1.00;;;;;;;23.82;31.34;100328.94;7391747;19;20015;-82
2023/04/05 01:44:53;;;;;;;7.60;1.48;;;;;;;23.89;31.38;100333.94;7393014;19;20023;-82
2023/04/05 01:47:19;;;;;;;8.63;2.47;;;;;;;23.96;31.20;100327.56;7390487;19;20410;-83
2023/04/05 01:49:46;;;;;;;4.50;2.00;;;;;;;23.97;31.35;100329.06;7389133;19;20018;-83
2023/04/05 01:52:13;;;;;;;5.47;1.65;;;;;;;23.84;31.54;100328.41;7389062;19;20030;-82
2023/04/05 01:54:39;;;;;;;5.95;1.50;;;;;;;23.71;31.62;100323.56;7389827;19;20018;-83
2023/04/05 01:57:05;;;;;;;3.92;1.83;;;;;;;23.73;31.58;100320.94;7393171;19;20026;-83
2023/04/05 01:59:31;;;;;;;7.53;1.48;;;;;;;23.79;31.63;100330.09;7395865;19;20054;-83
2023/04/05 02:01:59;;;;;;;2.15;1.58;;;;;;;23.87;31.88;100318.75;7395520;19;20362;-83
2023/04/05 02:04:26;;;;;;;1.95;0.75;;;;;;;23.87;31.60;100313.84;7398270;19;20035;-82
2023/04/05 02:06:52;;;;;;;1.17;1.17;;;;;;;23.95;31.87;100325.28;7397045;19;20022;-83
2023/04/05 02:09:18;;;;;;;4.13;1.20;;;;;;;23.89;31.90;100316.88;7398085;19;20022;-83
2023/04/05 02:11:44;;;;;;;1.85;1.35;;;;;;;23.81;31.94;100313.22;7395426;19;20018;-83
2023/04/05 02:14:11;;;;;;;1.48;1.08;;;;;;;23.73;31.58;100303.88;7398326;19;20083;-83
2023/04/05 02:16:37;;;;;;;3.40;1.65;;;;;;;23.75;31.61;100306.91;7397040;19;20018;-83
2023/04/05 02:19:04;;;;;;;1.98;1.83;;;;;;;23.68;31.96;100301.94;7396681;19;20014;-82
2023/04/05 02:21:30;;;;;;;6.80;1.75;;;;;;;23.80;32.01;100297.47;7397590;19;20018;-83
2023/04/05 02:23:57;;;;;;;1.35;0.82;;;;;;;23.68;31.56;100290.56;7399049;19;20029;-82
2023/04/05 02:26:23;;;;;;;5.35;2.03;;;;;;;23.81;31.54;100293.31;7397006;19;20010;-83
2023/04/05 02:28:49;;;;;;;1.73;1.20;;;;;;;23.63;31.87;100288.59;7397067;19;20022;-83
2023/04/05 02:31:15;;;;;;;1.65;1.55;;;;;;;23.59;31.54;100296.72;7395664;19;20362;-83
2023/04/05 02:33:41;;;;;;;1.17;1.17;;;;;;;23.49;32.29;100290.00;7396028;19;20379;-83
2023/04/05 02:36:09;;;;;;;6.05;1.98;;;;;;;23.49;31.94;100290.00;7395079;19;20114;-83
2023/04/05 02:38:36;;;;;;;1.98;1.75;;;;;;;23.48;32.02;100293.38;7394490;19;20018;-83
2023/04/05 02:41:02;;;;;;;1.73;1.63;;;;;;;23.57;31.73;100293.66;7394730;19;20029;-83
2023/04/05 02:43:30;;;;;;;2.55;2.08;;;;;;;23.57;32.24;100290.84;7395351;19;20031;-83
2023/04/05 02:45:56;;;;;;;2.40;1.45;;;;;;;23.76;32.15;100285.69;7396549;19;20018;-83
2023/04/05 02:48:23;;;;;;;0.85;0.85;;;;;;;23.58;32.28;100286.69;7395027;19;20027;-83
2023/04/05 02:50:50;;;;;;;2.35;1.00;;;;;;;23.58;32.04;100281.00;7394913;19;20011;-82
2023/04/05 02:53:17;;;;;;;3.35;1.45;;;;;;;23.60;32.14;100277.59;7394980;19;20069;-83
2023/04/05 02:55:53;;;;;;;3.83;1.38;;;;;;;23.77;31.73;100281.53;7392031;19;20017;-83
2023/04/05 02:58:20;;;;;;;0.95;0.95;;;;;;;23.89;31.96;100270.59;7394536;19;20022;-83
2023/04/05 03:00:50;;;;;;;5.40;2.55;;;;;;;23.71;31.74;100263.09;7393748;19;20037;-82
2023/04/05 03:03:21;;;;;;;0.60;0.60;;;;;;;23.54;32.01;100265.59;7394409;19;20014;-83
2023/04/05 03:05:55;;;;;;;2.42;1.17;;;;;;;23.40;32.26;100275.50;7393408;19;20007;-83
2023/04/05 03:08:23;;;;;;;4.35;1.02;;;;;;;23.33;32.06;100271.28;7393525;19;20010;-83
2023/04/05 03:10:59;;;;;;;2.50;1.70;;;;;;;23.23;32.43;100268.13;7394774;19;20350;-83
2023/04/05 03:13:25;;;;;;;1.42;1.13;;;;;;;23.24;32.38;100266.03;7395841;19;20082;-83
2023/04/05 03:15:53;;;;;;;4.30;2.05;;;;;;;24.03;31.70;100269.94;7391866;19;20028;-83
2023/04/05 03:18:20;;;;;;;4.35;1.27;;;;;;;24.04;31.30;100257.25;7393590;19;20373;-83
2023/04/05 03:20:49;;;;;;;6.57;2.33;;;;;;;23.94;31.51;100261.16;7394112;19;20097;-83
2023/04/05 03:23:19;;;;;;;0.77;0.77;;;;;;;23.53;31.94;100258.38;7395064;19;20410;-83
2023/04/05 03:25:48;;;;;;;1.98;1.88;;;;;;;23.34;32.42;100256.53;7393668;19;20492;-83
2023/04/05 03:28:17;;;;;;;3.20;1.40;;;;;;;23.43;32.02;100252.44;7392934;19;20014;-82
2023/04/05 03:30:45;;;;;;;6.70;1.27;;;;;;;23.03;32.50;100259.59;7394912;19;20022;-83
2023/04/05 03:33:17;;;;;;;3.83;2.80;;;;;;;22.85;32.56;100254.88;7394406;19;20017;-85
2023/04/05 03:35:47;;;;;;;2.33;1.23;;;;;;;22.91;32.59;100255.50;7391533;19;20014;-81
2023/04/05 03:38:15;;;;;;;1.98;1.08;;;;;;;22.93;32.64;100255.69;7394109;19;20018;-82
2023/04/05 03:41:01;;;;;;;4.90;1.70;;;;;;;23.02;32.39;100243.88;7393180;19;20026;-82
2023/04/05 03:43:28;;;;;;;1.67;1.58;;;;;;;22.58;32.98;100249.22;7394956;19;20018;-82
2023/04/05 03:45:55;;;;;;;3.08;2.13;;;;;;;20.57;34.95;100238.38;7392718;19;20424;-83
2023/04/05 03:48:21;;;;;;;6.18;1.95;;;;;;;20.04;35.96;100247.75;7392220;19;20018;-81
2023/04/05 03:50:49;;;;;;;4.03;2.20;;;;;;;18.50;38.07;100250.53;7393314;19;20018;-82
2023/04/05 03:53:17;;;;;;;2.10;1.27;;;;;;;18.63;38.38;100250.72;7393901;19;20015;-82
2023/04/05 03:55:49;;;;;;;1.20;1.20;;;;;;;20.68;36.35;100232.53;7390391;19;20019;-82
2023/04/05 03:58:17;;;;;;;2.35;1.75;;;;;;;21.49;35.26;100225.31;7392790;19;20021;-82
2023/04/05 04:00:43;;;;;;;0.88;0.88;;;;;;;21.41;34.96;100229.34;7391271;19;20043;-82
2023/04/05 04:03:15;;;;;;;1.27;1.17;;;;;;;21.10;35.40;100228.81;7392746;19;20014;-82
2023/04/05 04:05:45;;;;;;;5.05;1.17;;;;;;;21.34;35.36;100221.47;7392583;19;20106;-83
2023/04/05 04:08:12;;;;;;;3.67;1.38;;;;;;;21.65;35.22;100215.75;7391435;19;20021;-83
2023/04/05 04:10:38;;;;;;;3.72;1.48;;;;;;;21.76;35.00;100217.63;7396744;19;20014;-83
2023/04/05 04:13:13;;;;;;;1.40;1.30;;;;;;;21.88;34.79;100221.78;7393298;19;20014;-83
2023/04/05 04:15:40;;;;;;;2.22;2.00;;;;;;;21.52;35.20;100221.41;7390048;19;20032;-83
2023/04/05 04:18:41;;;;;;;3.92;1.08;;;;;;;21.66;35.55;100219.34;7386965;19;20023;-83
2023/04/05 04:21:31;;;;;;;3.22;1.83;;;;;;;21.34;36.05;100224.31;7391430;19;20018;-82
2023/04/05 04:24:17;;;;;;;3.28;1.77;;;;;;;22.15;34.95;100205.53;7397555;19;20014;-83
2023/04/05 04:27:12;;;;;;;;;;;;;;;22.59;34.44;100211.03;7389993;19;20022;-83
2023/04/05 04:30:03;;;;;;;2.30;1.45;;;;;;;22.58;34.87;100215.16;7393073;19;19922;-83
2023/04/05 04:32:56;;;;;;;1.15;1.15;;;;;;;22.22;34.70;100216.22;7392632;19;20022;-83
2023/04/05 04:35:45;;;;;;;3.08;2.30;;;;;;;21.80;35.59;100207.50;7389628;19;20014;-83
2023/04/05 04:38:17;;;;;;;2.35;1.65;;;;;;;22.34;35.09;100212.59;7393443;19;20064;-83
2023/04/05 04:41:08;;;;;;;3.45;1.58;;;;;;;22.89;34.86;100209.84;7392373;19;20477;-83
2023/04/05 04:44:04;;;;;;;1.75;1.67;;;;;;;22.68;34.86;100206.94;7390305;19;20493;-83
2023/04/05 04:46:43;;;;;;;3.55;1.88;;;;;;;22.72;35.27;100206.63;7390699;19;20073;-83
2023/04/05 04:49:21;;;;;;;2.20;1.67;;;;;;;22.96;34.78;100203.44;7390612;19;20018;-82
2023/04/05 04:51:47;;;;;;;1.45;1.35;;;;;;;23.17;34.59;100198.56;7392830;19;20053;-83
2023/04/05 04:54:19;;;;;;;14.43;2.95;;;;;;;23.26;34.52;100204.50;7394696;19;20017;-83
2023/04/05 04:56:46;;;;;;;3.22;1.42;;;;;;;23.11;34.86;100203.59;7392658;19;20021;-83
2023/04/05 04:59:12;;;;;;;5.45;2.33;;;;;;;22.99;34.85;100202.34;7390698;19;20022;-82
2023/04/05 05:01:39;;;;;;;4.15;2.10;;;;;;;22.73;35.56;100202.47;7392381;19;20043;-82
2023/04/05 05:04:08;;;;;;;5.68;1.55;;;;;;;23.12;35.14;100199.44;7395450;19;20073;-82
2023/04/05 05:06:36;;;;;;;10.95;4.20;;;;;;;23.04;35.13;100195.78;7410615;19;20011;-83
2023/04/05 05:09:02;;;;;;;3.85;1.90;;;;;;;22.32;36.01;100192.50;7413522;19;20028;-82
2023/04/05 05:11:32;;;;;;;3.35;3.08;;;;;;;22.48;36.25;100194.19;7396317;19;20616;-82
2023/04/05 05:13:58;;;;;;;2.15;1.90;;;;;;;22.69;36.29;100191.44;7393419;19;20014;-83
2023/04/05 05:16:26;;;;;;;6.65;2.28;;;;;;;22.86;35.88;100183.28;7388289;19;20022;-83
2023/04/05 05:18:53;;;;;;;5.35;2.90;;;;;;;22.89;35.83;100189.94;7388384;19;20019;-82
2023/04/05 05:21:21;;;;;;;2.28;1.73;;;;;;;22.91;36.24;100178.78;7388239;19;20011;-82
2023/04/05 05:23:54;;;;;;;1.10;1.10;;;;;;;22.92;36.08;100185.97;7391902;19;20477;-82
2023/04/05 05:26:21;;;;;;;4.32;1.73;;;;;;;22.98;36.53;100184.53;7390532;19;20018;-82
2023/04/05 05:28:48;;;;;;;2.25;1.67;;;;;;;23.31;35.91;100182.94;7390686;19;20010;-81
2023/04/05 05:31:16;;;;;;;2.70;2.45;;;;;;;23.42;36.08;100179.81;7393561;19;20375;-81
2023/04/05 05:33:44;;;;;;;7.03;3.50;;;;;;;23.49;36.31;100181.19;7398400;19;20473;-82
2023/04/05 05:36:10;;;;;;;7.13;2.72;;;;;;;23.38;36.35;100176.56;7396325;19;20015;-81
2023/04/05 05:38:36;;;;;;;3.97;1.55;;;;;;;23.55;36.37;100170.44;7398466;19;20064;-81
2023/04/05 05:41:03;;;;;;;3.75;2.20;;;;;;;23.59;35.88;100168.00;7398660;19;20055;-82
2023/04/05 05:43:29;;;;;;;4.10;1.75;;;;;;;23.59;36.16;100168.75;7399442;19;20031;-81
2023/04/05 05:46:00;;;;;;;2.08;1.65;;;;;;;23.58;36.41;100166.47;7398440;19;20021;-82
2023/04/05 05:48:26;;;;;;;5.68;2.45;;;;;;;23.59;36.37;100170.84;7396732;19;20491;-82
2023/04/05 05:50:53;;;;;;;3.58;1.98;;;;;;;23.71;36.11;100172.84;7397050;19;20018;-81
2023/04/05 05:53:19;;;;;;;11.00;1.35;;;;;;;23.86;36.11;100164.38;7397146;19;20432;-81
2023/04/05 05:55:45;;;;;;;6.95;2.15;;;;;;;23.69;36.53;100161.22;7394972;19;20018;-81
2023/04/05 05:58:11;;;;;;;7.00;1.77;;;;;;;23.67;36.48;100155.34;7397090;19;20022;-81
2023/04/05 06:00:37;;;;;;;2.33;1.55;;;;;;;23.75;36.41;100161.09;7397750;19;20011;-82
2023/04/05 06:03:04;;;;;;;5.03;1.75;;;;;;;23.97;36.37;100163.31;7397675;19;20043;-81
2023/04/05 06:05:31;;;;;;;3.75;2.10;;;;;;;24.14;35.94;100162.84;7396282;19;20007;-82
2023/04/05 06:07:57;;;;;;;1.38;1.25;;;;;;;24.07;36.30;100156.56;7396797;19;20007;-82
2023/04/05 06:10:24;;;;;;;3.30;1.73;;;;;;;23.89;36.19;100157.56;7400461;19;20007;-81
2023/04/05 06:12:50;;;;;;;1.73;1.63;;;;;;;24.03;36.24;100156.13;7398250;19;20025;-81
2023/04/05 06:15:16;;;;;;;1.95;1.60;;;;;;;24.11;36.43;100153.34;7393992;19;20010;-81
2023/04/05 06:17:42;;;;;;;2.70;2.30;;;;;;;24.11;36.55;100156.19;7397737;19;20035;-81
2023/04/05 06:20:12;;;;;;;1.95;1.73;;;;;;;24.38;36.38;100150.97;7397903;19;20357;-82
2023/04/05 06:22:43;;;;;;;2.47;1.70;;;;;;;24.28;36.21;100158.53;7397095;19;20343;-81
2023/04/05 06:25:11;;;;;;;5.95;2.17;;;;;;;24.33;36.45;100166.13;7397692;19;20082;-82
2023/04/05 06:27:37;;;;;;;5.65;2.50;;;;;;;24.34;36.31;100156.28;7396868;19;20018;-81
2023/04/05 06:30:03;;;;;;;2.78;2.58;;;;;;;24.35;36.66;100146.41;7395394;19;20007;-82
2023/04/05 06:32:29;;;;;;;6.75;2.25;;;;;;;24.31;36.68;100143.16;7396622;19;20015;-82
2023/04/05 06:34:56;;;;;;;4.93;3.00;;;;;;;24.61;36.38;100146.09;7399606;19;20338;-81
2023/04/05 06:37:22;;;;;;;1.60;1.48;;;;;;;24.68;36.73;100146.13;7396830;19;20078;-81
2023/04/05 06:39:48;;;;;;;2.17;1.58;;;;;;;24.78;36.70;100137.78;7396829;19;20022;-81
2023/04/05 06:42:14;;;;;;;4.65;3.83;;;;;;;24.81;36.17;100143.13;7392873;19;20021;-81
2023/04/05 06:44:45;;;;;;;;;;;;;;;25.11;36.34;100142.38;7395540;19;20014;-81
2023/04/05 06:47:11;;;;;;;1.83;1.73;;;;;;;25.30;35.98;100137.03;7393597;19;19958;-81
2023/04/05 06:49:37;;;;;;;1.88;1.75;;;;;;;25.40;36.10;100140.09;7395343;19;20057;-81
2023/04/05 06:52:07;;;;;;;3.13;2.78;;;;;;;25.38;35.59;100140.63;7394480;19;20030;-82
2023/04/05 06:54:36;;;;;;;3.58;1.92;;;;;;;25.23;35.94;100137.81;7394615;19;20469;-82
2023/04/05 06:57:02;;;;;;;2.58;2.13;;;;;;;25.23;36.39;100142.75;7394139;19;20006;-82
2023/04/05 06:59:28;;;;;;;2.90;2.05;;;;;;;25.10;35.99;100138.00;7394913;19;20014;-82
2023/04/05 07:01:55;;;;;;;5.22;1.67;;;;;;;25.01;36.52;100138.59;7396191;19;20010;-82
2023/04/05 07:04:21;;;;;;;5.90;3.13;;;;;;;24.99;36.72;100140.47;7398913;19;20019;-82
2023/04/05 07:06:47;;;;;;;9.05;2.13;;;;;;;25.20;36.52;100138.97;7395204;19;20014;-81
2023/04/05 07:09:13;;;;;;;12.25;1.88;;;;;;;25.24;36.82;100147.88;7394679;19;20049;-82
2023/04/05 07:11:40;;;;;;;2.88;1.70;;;;;;;25.27;37.03;100146.75;7395489;19;20018;-82
2023/04/05 07:14:06;;;;;;;15.15;2.70;;;;;;;25.33;36.80;100138.00;7397348;19;20070;-82
2023/04/05 07:16:33;;;;;;;6.25;2.90;;;;;;;25.42;36.77;100137.44;7393140;19;20026;-82
2023/04/05 07:18:59;;;;;;;2.85;2.08;;;;;;;25.43;36.96;100139.72;7391166;19;20006;-82
2023/04/05 07:21:25;;;;;;;2.45;1.73;;;;;;;25.31;37.18;100135.72;7393205;19;20023;-82
2023/04/05 07:23:54;;;;;;;11.05;3.08;;;;;;;25.36;37.13;100134.75;7394533;19;20090;-82
2023/04/05 07:26:21;;;;;;;5.05;2.88;;;;;;;25.40;37.09;100129.41;7394420;19;20063;-82
2023/04/05 07:28:47;;;;;;;1.33;1.27;;;;;;;25.79;36.91;100136.63;7395943;19;20029;-82
2023/04/05 07:31:14;;;;;;;6.40;3.40;;;;;;;25.77;37.21;100132.81;7394234;19;20028;-82
2023/04/05 07:33:40;;;;;;;3.50;2.58;;;;;;;25.71;37.30;100132.25;7393185;19;20038;-83
2023/04/05 07:36:07;;;;;;;9.52;2.38;;;;;;;25.72;37.40;100137.38;7392255;19;20018;-82
2023/04/05 07:38:33;;;;;;;5.82;2.63;;;;;;;25.99;36.97;100134.84;7394314;19;20019;-82
2023/04/05 07:40:59;;;;;;;5.30;2.83;;;;;;;25.86;37.09;100135.81;7394117;19;20022;-83
2023/04/05 07:43:26;;;;;;;5.93;2.40;;;;;;;25.94;37.40;100136.56;7393769;19;20018;-83
2023/04/05 07:46:00;;;;;;;5.47;2.38;;;;;;;26.05;37.28;100138.22;7394680;19;20047;-83
2023/04/05 07:48:27;;;;;;;5.32;2.50;;;;;;;26.77;36.60;100136.16;7392978;19;20018;-83
2023/04/05 07:50:53;;;;;;;3.58;1.95;;;;;;;26.91;36.67;100128.84;7392224;19;20015;-83
2023/04/05 07:53:19;;;;;;;2.55;2.13;;;;;;;27.46;35.83;100130.69;7393997;19;20019;-82
2023/04/05 07:55:46;;;;;;;1.67;1.58;;;;;;;27.61;35.93;100131.25;7389912;19;20026;-84
2023/04/05 07:58:13;;;;;;;4.63;1.75;;;;;;;27.67;36.23;100133.88;7392564;19;20056;-83
2023/04/05 08:00:39;;;;;;;1.75;1.65;;;;;;;27.63;36.40;100127.81;7393874;19;20014;-83
2023/04/05 08:03:05;;;;;;;5.07;1.73;;;;;;;27.56;35.87;100129.41;7393554;19;20014;-83
2023/04/05 08:05:31;;;;;;;7.90;1.95;;;;;;;27.52;36.27;100131.19;7393576;19;20019;-83
2023/04/05 08:07:58;;;;;;;2.70;2.20;;;;;;;27.53;36.58;100127.72;7393642;19;20018;-83
2023/04/05 08:10:24;;;;;;;3.47;2.25;;;;;;;27.16;37.14;100128.81;7396619;19;20045;-83
2023/04/05 08:12:51;;;;;;;5.97;2.17;;;;;;;27.38;36.64;100125.00;7392006;19;20022;-81
2023/04/05 08:15:17;;;;;;;6.47;3.03;;;;;;;27.63;36.60;100122.09;7390015;19;20116;-82
2023/04/05 08:17:43;;;;;;;4.30;2.17;;;;;;;27.77;36.09;100137.59;7393383;19;20473;-81
2023/04/05 08:20:10;;;;;;;5.05;2.05;;;;;;;28.24;35.46;100127.91;7393188;19;20042;-82
2023/04/05 08:22:36;;;;;;;6.68;2.00;;;;;;;28.41;35.50;100122.84;7393590;19;20026;-81
2023/04/05 08:25:02;;;;;;;4.47;2.05;;;;;;;27.67;36.52;100128.16;7392599;19;20035;-81
2023/04/05 08:27:28;;;;;;;6.05;1.58;;;;;;;27.74;36.42;100127.31;7393300;19;20356;-81
2023/04/05 08:29:54;;;;;;;3.50;1.83;;;;;;;27.91;35.94;100124.44;7392995;19;20030;-81
2023/04/05 08:32:21;;;;;;;5.35;2.10;;;;;;;28.02;36.02;100118.25;7393484;19;20025;-82
2023/04/05 08:34:47;;;;;;;8.52;1.92;;;;;;;28.78;35.23;100117.22;7396088;19;20010;-82
2023/04/05 08:37:13;;;;;;;6.28;2.72;;;;;;;28.97;35.05;100123.00;7391609;19;20027;-81
2023/04/05 08:39:39;;;;;;;5.13;2.85;;;;;;;29.03;34.91;100114.88;7391901;19;20020;-81
2023/04/05 08:42:22;;;;;;;7.88;3.05;;;;;;;28.94;34.58;100101.25;7392163;19;20018;-81
2023/04/05 08:44:51;;;;;;;25.27;2.40;;;;;;;28.85;34.99;100116.31;7392710;19;20044;-81
2023/04/05 08:47:18;;;;;;;2.20;2.00;;;;;;;28.96;34.74;100107.16;7391675;19;20029;-82
2023/04/05 08:49:45;;;;;;;4.10;2.42;;;;;;;29.07;34.99;100104.47;7390791;19;20018;-82
2023/04/05 08:52:12;;;;;;;3.80;3.35;;;;;;;28.20;35.47;100113.97;7392025;19;20395;-82
2023/04/05 08:54:38;;;;;;;5.60;2.35;;;;;;;28.13;35.76;100111.97;7391822;19;20359;-86
2023/04/05 08:57:06;;;;;;;6.38;2.55;;;;;;;28.93;35.01;100108.38;7391923;19;20781;-82
2023/04/05 08:59:36;;;;;;;4.20;1.30;;;;;;;28.44;35.59;100107.34;7391669;19;20051;-83
2023/04/05 09:02:11;;;;;;;3.65;2.88;;;;;;;28.86;35.37;100109.22;7390990;19;20116;-82
2023/04/05 09:04:43;;;;;;;6.82;1.88;;;;;;;28.91;35.15;100103.19;7395428;19;20111;-85
2023/04/05 09:07:12;;;;;;;8.00;1.80;;;;;;;28.97;34.76;100100.06;7392741;19;20021;-83
2023/04/05 09:09:48;;;;;;;7.13;3.40;;;;;;;28.97;34.89;100100.84;7395440;19;20347;-84
2023/04/05 09:12:14;;;;;;;16.30;2.15;;;;;;;29.06;34.88;100099.34;7392420;19;20035;-83
2023/04/05 09:14:42;;;;;;;5.75;3.42;;;;;;;29.08;35.01;100102.38;7390581;19;20014;-82
2023/04/05 09:17:11;;;;;;;27.00;5.43;;;;;;;29.17;34.85;100098.81;7389768;19;20032;-81
2023/04/05 09:19:38;;;;;;;4.70;2.90;;;;;;;29.07;34.88;100097.97;7390280;19;20264;-80
2023/04/05 09:22:06;;;;;;;21.95;2.70;;;;;;;29.10;34.57;100091.06;7389885;19;20022;-82
2023/04/05 09:24:40;;;;;;;4.30;1.77;;;;;;;29.21;34.58;100097.00;7392045;19;20023;-81
2023/04/05 09:27:12;;;;;;;7.22;3.17;;;;;;;29.04;34.50;100094.19;7391024;19;20374;-81
2023/04/05 09:29:40;;;;;;;6.25;2.97;;;;;;;29.19;34.59;100090.34;7391511;19;20010;-81
2023/04/05 09:32:09;;;;;;;5.53;3.97;;;;;;;29.18;34.30;100092.47;7388735;19;20032;-81
2023/04/05 09:34:37;;;;;;;3.75;1.80;;;;;;;29.27;34.85;100088.09;7393526;19;20094;-81
2023/04/05 09:37:20;;;;;;;9.52;3.42;;;;;;;29.33;34.64;100077.06;7392462;19;20007;-81
2023/04/05 09:39:50;;;;;;;8.02;3.70;;;;;;;29.06;35.17;100076.41;7389067;19;20078;-81
2023/04/05 09:42:18;;;;;;;3.60;2.60;;;;;;;29.31;34.75;100079.78;7391702;19;20667;-83
2023/04/05 09:45:03;;;;;;;4.57;1.90;;;;;;;29.37;34.91;100076.66;7389882;19;20275;-82
2023/04/05 09:47:34;;;;;;;5.40;3.05;;;;;;;29.27;34.93;100076.63;7389808;19;20235;-82
2023/04/05 09:50:17;;;;;;;8.77;3.35;;;;;;;29.43;34.86;100083.59;7389125;19;20011;-82
2023/04/05 09:52:44;;;;;;;2.77;2.20;;;;;;;29.55;35.01;100084.50;7391167;19;20014;-81
2023/04/05 09:55:12;;;;;;;10.27;3.72;;;;;;;29.65;34.79;100075.91;7388434;19;20367;-81
2023/04/05 09:57:40;;;;;;;3.03;1.90;;;;;;;29.83;34.61;100075.16;7390849;19;20493;-80
2023/04/05 10:00:16;;;;;;;8.50;4.00;;;;;;;29.82;34.58;100075.78;7390982;19;20015;-81
2023/04/05 10:02:43;;;;;;;5.13;2.80;;;;;;;29.71;34.74;100073.50;7391295;19;20019;-82
2023/04/05 10:05:12;;;;;;;2.97;1.67;;;;;;;29.90;34.50;100073.50;7390875;19;20116;-82
2023/04/05 10:07:42;;;;;;;4.65;2.60;;;;;;;29.95;34.15;100072.44;7391334;19;20028;-82
2023/04/05 10:10:11;;;;;;;1.30;1.20;;;;;;;29.82;34.24;100073.63;7394789;19;20027;-83
2023/04/05 10:12:40;;;;;;;6.13;2.28;;;;;;;29.69;34.28;100071.19;7389759;19;20010;-83
2023/04/05 10:15:11;;;;;;;2.50;2.15;;;;;;;29.57;34.61;100078.91;7388340;19;20019;-83
2023/04/05 10:17:51;;;;;;;3.83;3.17;;;;;;;29.60;34.30;100074.09;7393157;19;20014;-83
2023/04/05 10:20:19;;;;;;;6.60;2.30;;;;;;;29.66;34.49;100069.56;7397975;19;20023;-83
2023/04/05 10:23:04;;;;;;;8.32;3.70;;;;;;;29.76;35.01;100070.31;7397273;19;20018;-83
2023/04/05 10:25:51;;;;;;;12.75;3.38;;;;;;;29.71;34.88;100071.38;7397489;19;20481;-81
2023/04/05 10:28:26;;;;;;;7.45;3.08;;;;;;;29.66;34.55;100072.44;7395675;19;20022;-81
2023/04/05 10:31:06;;;;;;;2.90;1.85;;;;;;;29.62;34.79;100072.13;7395943;19;20011;-81
2023/04/05 10:33:38;;;;;;;10.95;2.38;;;;;;;29.57;34.69;100073.19;7397015;19;20011;-81
2023/04/05 10:36:30;;;;;;;7.18;2.38;;;;;;;29.69;34.83;100074.06;7393298;19;20010;-80
2023/04/05 10:39:03;;;;;;;7.85;3.30;;;;;;;29.85;34.36;100066.69;7395523;19;20006;-80
2023/04/05 10:41:42;;;;;;;6.13;3.03;;;;;;;29.98;34.48;100074.84;7395476;19;20010;-84
2023/04/05 10:44:10;;;;;;;11.00;2.42;;;;;;;29.99;34.26;100064.84;7398991;19;20014;-87
2023/04/05 10:46:39;;;;;;;5.20;3.35;;;;;;;29.95;34.83;100064.56;7397174;19;20078;-82
2023/04/05 10:49:30;;;;;;;4.18;3.50;;;;;;;29.99;34.95;100055.50;7394575;19;20094;-82
2023/04/05 10:51:57;;;;;;;8.23;3.47;;;;;;;29.92;34.75;100059.28;7393911;19;20011;-83
2023/04/05 10:54:24;;;;;;;14.93;3.30;;;;;;;29.77;34.39;100062.47;7393700;19;20014;-81
2023/04/05 10:56:50;;;;;;;4.88;3.00;;;;;;;29.71;34.79;100057.03;7394439;19;20027;-81
2023/04/05 10:59:17;;;;;;;4.50;2.60;;;;;;;29.78;34.78;100061.84;7394340;19;20022;-81
2023/04/05 11:01:45;;;;;;;8.80;3.33;;;;;;;30.05;34.92;100053.06;7395910;19;20406;-81
2023/04/05 11:04:15;;;;;;;5.82;3.08;;;;;;;30.14;34.38;100060.91;7399594;19;20017;-81
2023/04/05 11:06:42;;;;;;;12.20;4.10;;;;;;;30.05;34.66;100055.19;7394916;19;20047;-79
2023/04/05 11:09:19;;;;;;;2.67;2.03;;;;;;;30.05;35.12;100050.19;7397489;19;20018;-80
2023/04/05 11:11:50;;;;;;;10.30;3.17;;;;;;;29.95;34.72;100053.06;7396042;19;20022;-80
2023/04/05 11:14:25;;;;;;;8.23;3.38;;;;;;;29.89;34.54;100049.75;7398183;19;20031;-80
2023/04/05 11:16:55;;;;;;;2.78;2.28;;;;;;;29.75;34.31;100045.84;7395377;19;20082;-80
2023/04/05 11:19:43;;;;;;;9.35;3.42;;;;;;;29.77;34.31;100046.00;7394734;19;20014;-80
2023/04/05 11:22:10;;;;;;;6.25;2.63;;;;;;;29.84;34.72;100041.47;7394453;19;20015;-78
2023/04/05 11:24:49;;;;;;;8.95;2.95;;;;;;;29.97;34.82;100041.72;7393978;19;20036;-82
2023/04/05 11:27:15;;;;;;;10.30;3.28;;;;;;;30.05;35.06;100037.94;7393196;19;20365;-81
2023/04/05 11:29:48;;;;;;;3.65;1.90;;;;;;;30.22;34.81;100040.63;7392031;19;20018;-81
2023/04/05 11:32:14;;;;;;;7.80;2.55;;;;;;;30.36;34.83;100038.81;7393402;19;20022;-82
2023/04/05 11:34:41;;;;;;;10.15;3.95;;;;;;;30.33;34.54;100040.00;7396850;19;20022;-82
2023/04/05 11:37:08;;;;;;;5.28;1.35;;;;;;;30.49;34.63;100036.16;7394744;19;20018;-81